Whale Point, California Weather observations

Data are for observation ending at time listed.
 Day   Time    Ave.   Ave.  Ave.  Vector   Max.   Stn.    Total    Solar   Ave.  
  of    of     Air    Rel.  Wind   Wind    Wind   Baro.  Precip.   Rad.    Soil  
Year   Day     Temp.  Hum.  Speed  Dir.    Gust   Pres.                    Temp. 
2015   (PST)    F      %     mph   deg.    mph     mb.     in.     W/m2     F   
------------------------------------------------------------------------------
 242   16:40   69.0    62    4.8   235      9.4   992.2    0.00     375    79.0
 242   16:50   69.9    60    3.9   215      8.3   992.2    0.00     337    79.1
 242   17:00   69.0    62    4.4   231      9.0   992.2    0.00     255    79.3
 242   17:10   69.3    61    2.3   256      6.5   991.9    0.00     233    79.4
 242   17:20   68.8    62    3.0   220      5.6   991.9    0.00     225    79.5
 242   17:30   68.6    63    2.4   228      5.0   991.9    0.00     192    79.6
 242   17:40   67.9    65    2.3   221      5.7   991.5    0.00     158    79.8
 242   17:50   67.6    65    2.3   210      4.0   991.5    0.00     129    79.9
 242   18:00   67.2    66    2.7   221      4.4   991.5    0.00     101    80.0
 242   18:10   66.6    67    1.3   222      3.1   991.2    0.00      68    80.1
 242   18:20   65.8    68    0.7   328      2.7   991.2    0.00      41    80.2
 242   18:30   65.6    68    0.8   204      2.9   991.2    0.00      14    80.3
 242   18:40   64.7    70    1.2   169      2.3   991.2    0.00       6    80.4
 242   18:50   64.1    71    1.2    67      3.6   991.2    0.00       2    80.5
 242   19:00   63.6    73    1.2    40      3.1   991.2    0.00       0    80.6
 242   19:10   64.0    72    0.6   150      1.9   990.9    0.00       0    80.6
 242   19:20   63.8    72    1.4   142      3.1   990.9    0.00       0    80.7
 242   19:30   63.9    72    1.2   136      3.0   991.2    0.00       0    80.7
 242   19:40   64.4    71    1.0    51      3.7   991.2    0.00       0    80.7
 242   19:50   65.1    69    1.1   170      3.4   991.2    0.00       0    80.7
 242   20:00   64.7    68    1.8   137      4.5   991.2    0.00       0    80.7
 242   20:10   65.3    66    1.7   124      4.3   991.2    0.00       0    80.7
 242   20:20   65.7    65    1.2    66      3.0   991.2    0.00       0    80.7
 242   20:30   65.3    64    1.3   157      2.9   991.2    0.00       0    80.7
 242   20:40   66.3    62    1.1   144      2.6   991.2    0.00       0    80.7
 242   20:50   67.0    60    1.4   147      3.4   991.2    0.00       0    80.6
 242   21:00   66.6    60    2.3   152      4.7   991.2    0.00       0    80.6
 242   21:10   66.3    60    2.5   140      5.5   991.2    0.00       0    80.5
 242   21:20   66.8    56    2.2   144      5.6   991.2    0.00       0    80.5
 242   21:30   66.6    57    1.5   107      3.4   991.2    0.00       0    80.4
 242   21:40   66.8    56    1.0   150      3.0   991.2    0.00       0    80.3
 242   21:50   66.3    56    1.9   156      3.9   991.2    0.00       0    80.3
 242   22:00   64.8    60    1.2   152      3.4   991.2    0.00       0    80.2
 242   22:10   63.4    63    1.3    35      4.7   991.2    0.00       0    80.2
 242   22:20   63.3    62    1.5     8      3.1   991.2    0.00       0    80.1
 242   22:30   64.8    52    0.6    71      2.2   991.2    0.00       0    80.0
 242   22:40   65.5    49    0.3   165      1.2   991.2    0.00       0    79.9
 242   22:50   65.2    51    0.8   133      2.1   991.2    0.00       0    79.8
 242   23:00   65.0    49    1.1    54      3.7   991.2    0.00       0    79.7
 242   23:10   65.6    47    1.3   128      4.2   991.2    0.00       0    79.6
 242   23:20   65.4    47    0.3    51      1.4   991.2    0.00       0    79.5
 242   23:30   65.3    47    0.5   161      1.6   991.2    0.00       0    79.4
 242   23:40   64.6    51    1.4    54      3.1   991.2    0.00       0    79.4
 242   23:50   63.9    51    1.6    96      4.1   991.5    0.00       0    79.3
 243    0:00   63.8    53    0.2   230      0.9   991.5    0.00       0    79.2
 243    0:10   63.2    54    1.1    21      4.7   991.5    0.00       0    79.1
 243    0:20   63.5    50    1.3   165      3.1   991.5    0.00       0    79.0
 243    0:30   62.8    59    0.2   221      1.2   991.5    0.00       0    78.9
 243    0:40   61.9    60    0.7    10      2.6   991.5    0.00       0    78.8
 243    0:50   61.6    63    1.6    14      2.7   991.5    0.00       0    78.7
 243    1:00   61.7    63    1.0    16      2.3   991.5    0.00       0    78.6
 243    1:10   62.0    60    0.3   273      1.5   991.5    0.00       0    78.5
 243    1:20   62.4    59    0.7   347      2.2   991.2    0.00       0    78.4
 243    1:30   62.2    58    0.8    32      2.7   991.5    0.00       0    78.3
 243    1:40   61.1    56    1.4    20      2.9   991.2    0.00       0    78.2
 243    1:50   61.1    57    0.9   158      2.0   991.2    0.00       0    78.2
 243    2:00   61.1    57    0.9   104      3.5   991.2    0.00       0    78.0
 243    2:10   60.6    61    2.0     9      3.5   991.5    0.00       0    78.0
 243    2:20   60.7    65    3.0   144      7.2   991.5    0.00       0    77.9
 243    2:30   61.0    60    2.1    29      5.0   991.5    0.00       0    77.8
 243    2:40   62.0    54    1.6    54      4.3   991.5    0.00       0    77.6
 243    2:50   64.5    43    2.6    62      4.1   991.2    0.00       0    77.6
 243    3:00   66.4    42    0.5    99      2.8   991.2    0.00       0    77.5
 243    3:10   64.4    48    0.0    18      0.5   991.2    0.00       0    77.4
 243    3:20   62.9    53    0.8    11      2.0   991.2    0.00       0    77.3
 243    3:30   62.4    51    0.4    19      1.7   991.2    0.00       0    77.2
 243    3:40   61.9    48    0.4    28      1.6   991.2    0.00       0    77.1
 243    3:50   62.0    54    0.8   108      2.3   991.5    0.00       0    77.0
 243    4:00   63.2    48    1.7    62      3.7   991.5    0.00       0    76.9
 243    4:10   64.3    43    1.1    70      2.9   991.5    0.00       0    76.8
 243    4:20   64.7    44    0.0     0      0.0   991.5    0.00       0    76.7
 243    4:30   64.5    45    0.3   159      1.5   991.5    0.00       0    76.6
 243    4:40   62.2    46    0.6   144      2.3   991.5    0.00       0    76.6
 243    4:50   59.7    61    2.6   158      5.1   991.5    0.00       0    76.5
 243    5:00   57.8    71    3.2   154      5.3   991.5    0.00       0    76.4
 243    5:10   58.0    72    1.9   144      3.2   991.5    0.00       0    76.3
 243    5:20   58.4    73    1.3   141      3.0   991.5    0.00       0    76.2
 243    5:30   59.0    72    1.2    73      2.8   991.5    0.00       1    76.1
 243    5:40   59.8    64    1.5   101      3.7   991.5    0.00       4    76.0
 243    5:50   61.0    58    1.1    22      2.3   991.5    0.00      11    75.9
 243    6:00   60.9    57    0.3   180      1.7   991.5    0.00      19    75.8
 243    6:10   59.9    58    0.4   355      2.2   991.9    0.00      27    75.8
 243    6:20   59.3    61    0.3    20      0.9   991.9    0.00      33    75.7
 243    6:30   59.3    63    0.3     7      1.5   991.9    0.00      38    75.6
 243    6:40   59.2    63    0.3    12      1.4   991.9    0.00      42    75.5
 243    6:50   59.0    61    1.4    14      2.8   992.2    0.00      44    75.4
 243    7:00   58.5    66    1.7     5      4.2   992.2    0.00      45    75.3
 243    7:10   58.2    69    1.8    25      3.1   992.2    0.00      46    75.3
 243    7:20   58.5    69    0.6    58      1.8   992.6    0.00      47    75.2
 243    7:30   59.0    69    1.4   139      2.5   992.6    0.00     205    75.1
 243    7:40   61.1    66    1.0   174      2.8   992.6    0.00     373    75.0
 243    7:50   61.5    68    1.9   196      3.7   992.6    0.00     422    74.9
 243    8:00   61.3    70    1.8   186      4.2   992.6    0.00     459    74.8
 243    8:10   62.8    65    4.1   172      7.7   992.6    0.00     493    74.7
 243    8:20   63.2    65    4.0   180      7.3   992.6    0.00     531    74.7
 243    8:30   63.4    65    3.7   177      6.4   992.9    0.00     565    74.6
 243    8:40   63.8    65    3.3   191      5.3   992.9    0.00     598    74.6
 243    8:50   63.4    67    2.8   190      4.7   992.9    0.00     630    74.5
 243    9:00   63.8    66    3.5   187      7.5   992.9    0.00     660    74.4
 243    9:10   63.2    68    3.5   188      5.6   992.9    0.00     690    74.4
 243    9:20   64.2    66    3.6   181      7.0   993.2    0.00     718    74.3
 243    9:30   64.9    64    3.9   175      7.1   993.2    0.00     744    74.3
 243    9:40   64.0    68    3.2   186      6.1   993.2    0.00     769    74.3
 243    9:50   63.9    69    3.4   194      5.4   993.2    0.00     792    74.2
 243   10:00   63.6    69    3.5   200      5.6   993.2    0.00     814    74.2
 243   10:10   63.6    70    3.1   212      4.7   993.2    0.00     836    74.2
 243   10:20   63.9    71    3.1   210      4.7   993.2    0.00     856    74.2
 243   10:30   63.9    70    3.5   221      5.3   993.2    0.00     873    74.2
 243   10:40   65.3    66    4.2   201      7.2   993.2    0.00     889    74.2
 243   10:50   63.7    70    5.0   201      7.2   993.2    0.00     903    74.2
 243   11:00   63.4    71    5.2   210      8.5   993.2    0.00     915    74.2
 243   11:10   63.8    70    4.9   201      7.5   993.2    0.00     926    74.2
 243   11:20   64.4    70    5.2   203      7.6   992.9    0.00     935    74.2
 243   11:30   64.1    71    4.8   208      7.3   992.9    0.00     942    74.2
 243   11:40   64.8    70    4.3   200      7.1   993.2    0.00     946    74.2
 243   11:50   65.0    70    4.1   189      6.9   992.9    0.00     950    74.2
 243   12:00   65.6    70    4.3   208      6.9   992.9    0.00     954    74.2
 243   12:10   65.0    70    4.8   211      8.4   992.9    0.00     955    74.2
 243   12:20   65.2    69    5.5   216      8.5   992.9    0.00     950    74.3
 243   12:30   64.7    70    5.3   226      9.4   992.9    0.00     947    74.3
 243   12:40   65.0    69    5.4   236      9.1   992.9    0.00     941    74.4
 243   12:50   65.5    68    5.1   231      8.9   992.9    0.00     935    74.4
 243   13:00   65.3    68    4.3   238      8.0   992.9    0.00     925    74.5
 243   13:10   66.2    67    5.2   224      9.9   992.9    0.00     915    74.6
 243   13:20   65.6    69    4.5   222      9.7   992.9    0.00     902    74.7
 243   13:30   65.3    68    5.1   228      9.9   992.6    0.00     890    74.9
 243   13:40   65.8    68    4.6   218      9.1   992.6    0.00     874    75.0
 243   13:50   66.2    67    5.2   221      8.3   992.6    0.00     854    75.1
 243   14:00   66.6    67    4.8   222      8.0   992.6    0.00     835    75.2
 243   14:10   67.3    66    5.1   223      8.3   992.2    0.00     814    75.4
 243   14:20   67.9    65    4.9   238      9.1   992.2    0.00     793    75.5
 243   14:30   69.1    62    5.4   243     10.4   991.9    0.00     772    75.7
 243   14:40   68.4    64    5.1   252     10.3   991.9    0.00     747    75.8
 243   14:50   68.1    64    5.1   247      9.1   991.9    0.00     722    76.0
 243   15:00   68.2    65    5.3   242      8.2   991.9    0.00     695    76.2
 243   15:10   69.2    63    5.4   226      8.0   991.5    0.00     666    76.3
 243   15:20   68.6    64    5.2   230      8.5   991.5    0.00     637    76.6
 243   15:30   68.7    64    4.9   238      8.8   991.5    0.00     606    76.7
 243   15:40   68.3    65    4.8   242      8.6   991.5    0.00     575    76.9
 243   15:50   67.8    67    4.8   226     11.1   991.5    0.00     544    77.1
 243   16:00   68.1    66    4.7   225      8.4   991.5    0.00     510    77.3
 243   16:10   67.7    66    5.1   238     10.0   991.5    0.00     475    77.4
 243   16:20   67.7    66    4.8   226      9.4   991.5    0.00     438    77.6
 243   16:30   68.1    66    4.1   232      8.5   991.5    0.00     405    77.8

Return to Whale Point graphs page.


Western Regional Climate Center,wrcc@dri.edu